sensor_id;sensor_type;location;lat;lon;timestamp;P1;durP1;ratioP1;P2;durP2;ratioP2
42948;SDS011;28587;46.794;23.594;2022-10-20T00:02:01;5.28;;;4.78;;
42948;SDS011;28587;46.794;23.594;2022-10-20T00:07:02;4.72;;;4.32;;
42948;SDS011;28587;46.794;23.594;2022-10-20T00:12:03;4.82;;;4.07;;
42948;SDS011;28587;46.794;23.594;2022-10-20T00:17:04;5.60;;;4.43;;
42948;SDS011;28587;46.794;23.594;2022-10-20T00:22:05;4.40;;;3.97;;
42948;SDS011;28587;46.794;23.594;2022-10-20T00:27:06;4.65;;;4.25;;
42948;SDS011;28587;46.794;23.594;2022-10-20T00:32:07;5.13;;;4.43;;
42948;SDS011;28587;46.794;23.594;2022-10-20T00:37:08;5.22;;;4.63;;
42948;SDS011;28587;46.794;23.594;2022-10-20T00:42:10;4.25;;;3.72;;
42948;SDS011;28587;46.794;23.594;2022-10-20T00:47:16;5.57;;;4.25;;
42948;SDS011;28587;46.794;23.594;2022-10-20T00:52:19;4.25;;;3.85;;
42948;SDS011;28587;46.794;23.594;2022-10-20T00:57:21;5.47;;;4.20;;
42948;SDS011;28587;46.794;23.594;2022-10-20T01:02:22;5.03;;;4.05;;
42948;SDS011;28587;46.794;23.594;2022-10-20T01:07:23;4.53;;;3.97;;
42948;SDS011;28587;46.794;23.594;2022-10-20T01:12:29;4.65;;;4.05;;
42948;SDS011;28587;46.794;23.594;2022-10-20T01:17:43;5.95;;;3.95;;
42948;SDS011;28587;46.794;23.594;2022-10-20T01:28:01;4.30;;;3.90;;
42948;SDS011;28587;46.794;23.594;2022-10-20T01:43:36;3.72;;;3.40;;
42948;SDS011;28587;46.794;23.594;2022-10-20T01:48:39;3.45;;;3.15;;
42948;SDS011;28587;46.794;23.594;2022-10-20T01:53:40;3.80;;;3.50;;
42948;SDS011;28587;46.794;23.594;2022-10-20T02:04:01;3.53;;;3.17;;
42948;SDS011;28587;46.794;23.594;2022-10-20T02:09:04;3.30;;;3.00;;
42948;SDS011;28587;46.794;23.594;2022-10-20T02:14:10;4.03;;;3.30;;
42948;SDS011;28587;46.794;23.594;2022-10-20T02:19:15;3.92;;;3.20;;
42948;SDS011;28587;46.794;23.594;2022-10-20T02:24:20;3.97;;;3.67;;
42948;SDS011;28587;46.794;23.594;2022-10-20T02:29:26;3.88;;;3.38;;
42948;SDS011;28587;46.794;23.594;2022-10-20T02:34:29;3.15;;;2.95;;
42948;SDS011;28587;46.794;23.594;2022-10-20T02:39:31;3.80;;;3.50;;
42948;SDS011;28587;46.794;23.594;2022-10-20T02:44:32;4.38;;;3.55;;
42948;SDS011;28587;46.794;23.594;2022-10-20T02:49:33;3.60;;;3.30;;
42948;SDS011;28587;46.794;23.594;2022-10-20T02:54:33;3.55;;;3.17;;
42948;SDS011;28587;46.794;23.594;2022-10-20T02:59:34;3.40;;;3.10;;
42948;SDS011;28587;46.794;23.594;2022-10-20T03:04:35;3.35;;;2.90;;
42948;SDS011;28587;46.794;23.594;2022-10-20T03:09:36;5.00;;;3.50;;
42948;SDS011;28587;46.794;23.594;2022-10-20T03:14:37;3.83;;;3.33;;
42948;SDS011;28587;46.794;23.594;2022-10-20T03:19:39;3.20;;;2.90;;
42948;SDS011;28587;46.794;23.594;2022-10-20T03:24:40;3.55;;;2.88;;
42948;SDS011;28587;46.794;23.594;2022-10-20T03:29:41;3.05;;;2.83;;
42948;SDS011;28587;46.794;23.594;2022-10-20T03:34:42;3.25;;;2.80;;
42948;SDS011;28587;46.794;23.594;2022-10-20T03:39:43;3.28;;;2.92;;
42948;SDS011;28587;46.794;23.594;2022-10-20T03:44:44;3.08;;;2.78;;
42948;SDS011;28587;46.794;23.594;2022-10-20T03:49:45;2.75;;;2.47;;
42948;SDS011;28587;46.794;23.594;2022-10-20T03:54:47;3.00;;;2.80;;
42948;SDS011;28587;46.794;23.594;2022-10-20T03:59:48;3.15;;;2.85;;
42948;SDS011;28587;46.794;23.594;2022-10-20T04:04:49;3.13;;;2.83;;
42948;SDS011;28587;46.794;23.594;2022-10-20T04:09:51;3.03;;;2.67;;
42948;SDS011;28587;46.794;23.594;2022-10-20T04:14:52;3.63;;;2.80;;
42948;SDS011;28587;46.794;23.594;2022-10-20T04:19:53;3.13;;;2.60;;
42948;SDS011;28587;46.794;23.594;2022-10-20T04:24:54;2.65;;;2.45;;
42948;SDS011;28587;46.794;23.594;2022-10-20T04:29:55;3.58;;;3.15;;
42948;SDS011;28587;46.794;23.594;2022-10-20T04:34:56;4.63;;;3.22;;
42948;SDS011;28587;46.794;23.594;2022-10-20T04:39:57;3.78;;;2.67;;
42948;SDS011;28587;46.794;23.594;2022-10-20T04:44:58;2.90;;;2.70;;
42948;SDS011;28587;46.794;23.594;2022-10-20T04:49:59;4.70;;;3.10;;
42948;SDS011;28587;46.794;23.594;2022-10-20T04:54:59;4.05;;;3.03;;
42948;SDS011;28587;46.794;23.594;2022-10-20T05:00:00;3.53;;;3.15;;
42948;SDS011;28587;46.794;23.594;2022-10-20T05:05:01;3.20;;;2.60;;
42948;SDS011;28587;46.794;23.594;2022-10-20T05:10:04;4.57;;;2.65;;
42948;SDS011;28587;46.794;23.594;2022-10-20T05:15:05;8.07;;;3.03;;
42948;SDS011;28587;46.794;23.594;2022-10-20T05:20:06;4.00;;;2.83;;
42948;SDS011;28587;46.794;23.594;2022-10-20T05:25:07;7.03;;;2.70;;
42948;SDS011;28587;46.794;23.594;2022-10-20T05:30:08;4.03;;;2.80;;
42948;SDS011;28587;46.794;23.594;2022-10-20T05:35:09;2.60;;;2.30;;
42948;SDS011;28587;46.794;23.594;2022-10-20T05:40:10;6.82;;;2.83;;
42948;SDS011;28587;46.794;23.594;2022-10-20T05:45:11;4.20;;;2.83;;
42948;SDS011;28587;46.794;23.594;2022-10-20T05:50:12;3.05;;;2.53;;
42948;SDS011;28587;46.794;23.594;2022-10-20T05:55:13;5.20;;;2.47;;
42948;SDS011;28587;46.794;23.594;2022-10-20T06:00:14;3.33;;;2.22;;
42948;SDS011;28587;46.794;23.594;2022-10-20T06:05:15;3.72;;;2.50;;
42948;SDS011;28587;46.794;23.594;2022-10-20T06:10:16;2.80;;;2.30;;
42948;SDS011;28587;46.794;23.594;2022-10-20T06:15:17;3.47;;;2.45;;
42948;SDS011;28587;46.794;23.594;2022-10-20T06:20:18;2.35;;;2.10;;
42948;SDS011;28587;46.794;23.594;2022-10-20T06:25:18;3.25;;;2.05;;
42948;SDS011;28587;46.794;23.594;2022-10-20T06:30:19;2.10;;;2.00;;
42948;SDS011;28587;46.794;23.594;2022-10-20T06:35:20;2.35;;;1.75;;
42948;SDS011;28587;46.794;23.594;2022-10-20T06:40:21;2.83;;;2.22;;
42948;SDS011;28587;46.794;23.594;2022-10-20T06:45:22;2.20;;;2.00;;
42948;SDS011;28587;46.794;23.594;2022-10-20T06:50:23;2.35;;;1.90;;
42948;SDS011;28587;46.794;23.594;2022-10-20T06:55:24;1.92;;;1.80;;
42948;SDS011;28587;46.794;23.594;2022-10-20T07:00:25;2.13;;;1.80;;
42948;SDS011;28587;46.794;23.594;2022-10-20T07:05:26;2.42;;;1.90;;
42948;SDS011;28587;46.794;23.594;2022-10-20T07:10:27;2.45;;;2.10;;
42948;SDS011;28587;46.794;23.594;2022-10-20T07:15:28;1.67;;;1.58;;
42948;SDS011;28587;46.794;23.594;2022-10-20T07:20:29;1.70;;;1.60;;
42948;SDS011;28587;46.794;23.594;2022-10-20T07:25:29;1.77;;;1.63;;
42948;SDS011;28587;46.794;23.594;2022-10-20T07:30:30;1.70;;;1.60;;
42948;SDS011;28587;46.794;23.594;2022-10-20T07:35:31;1.80;;;1.70;;
42948;SDS011;28587;46.794;23.594;2022-10-20T07:40:32;2.25;;;1.90;;
42948;SDS011;28587;46.794;23.594;2022-10-20T07:45:33;1.75;;;1.65;;
42948;SDS011;28587;46.794;23.594;2022-10-20T07:50:35;1.75;;;1.42;;
42948;SDS011;28587;46.794;23.594;2022-10-20T07:55:36;1.60;;;1.50;;
42948;SDS011;28587;46.794;23.594;2022-10-20T08:00:37;1.75;;;1.60;;
42948;SDS011;28587;46.794;23.594;2022-10-20T08:05:38;1.75;;;1.65;;
42948;SDS011;28587;46.794;23.594;2022-10-20T08:10:39;1.90;;;1.63;;
42948;SDS011;28587;46.794;23.594;2022-10-20T08:15:40;1.48;;;1.38;;
42948;SDS011;28587;46.794;23.594;2022-10-20T08:20:41;2.33;;;1.80;;
42948;SDS011;28587;46.794;23.594;2022-10-20T08:25:42;1.55;;;1.40;;
42948;SDS011;28587;46.794;23.594;2022-10-20T08:30:43;2.30;;;1.52;;
42948;SDS011;28587;46.794;23.594;2022-10-20T08:35:44;1.83;;;1.33;;
42948;SDS011;28587;46.794;23.594;2022-10-20T08:40:45;1.88;;;1.50;;
42948;SDS011;28587;46.794;23.594;2022-10-20T08:45:46;2.10;;;1.27;;
42948;SDS011;28587;46.794;23.594;2022-10-20T08:50:48;1.67;;;1.58;;
42948;SDS011;28587;46.794;23.594;2022-10-20T08:55:51;1.60;;;1.50;;
42948;SDS011;28587;46.794;23.594;2022-10-20T09:00:55;1.40;;;1.30;;
42948;SDS011;28587;46.794;23.594;2022-10-20T09:11:05;1.60;;;1.50;;
42948;SDS011;28587;46.794;23.594;2022-10-20T09:16:18;3.00;;;1.38;;
42948;SDS011;28587;46.794;23.594;2022-10-20T09:21:28;1.40;;;1.25;;
42948;SDS011;28587;46.794;23.594;2022-10-20T09:26:36;1.70;;;1.60;;
42948;SDS011;28587;46.794;23.594;2022-10-20T09:31:52;1.63;;;1.30;;
42948;SDS011;28587;46.794;23.594;2022-10-20T09:42:02;1.60;;;1.50;;
42948;SDS011;28587;46.794;23.594;2022-10-20T09:47:09;1.40;;;1.30;;
42948;SDS011;28587;46.794;23.594;2022-10-20T09:52:18;1.63;;;1.48;;
42948;SDS011;28587;46.794;23.594;2022-10-20T09:57:22;1.42;;;1.33;;
42948;SDS011;28587;46.794;23.594;2022-10-20T10:12:27;2.90;;;1.85;;
42948;SDS011;28587;46.794;23.594;2022-10-20T10:17:33;2.83;;;2.05;;
42948;SDS011;28587;46.794;23.594;2022-10-20T10:22:36;4.28;;;2.20;;
42948;SDS011;28587;46.794;23.594;2022-10-20T10:27:38;3.58;;;1.88;;
42948;SDS011;28587;46.794;23.594;2022-10-20T10:32:42;2.75;;;2.08;;
42948;SDS011;28587;46.794;23.594;2022-10-20T10:37:44;6.00;;;2.13;;
42948;SDS011;28587;46.794;23.594;2022-10-20T10:48:19;4.15;;;2.05;;
42948;SDS011;28587;46.794;23.594;2022-10-20T10:59:22;2.70;;;1.70;;
42948;SDS011;28587;46.794;23.594;2022-10-20T11:09:49;2.95;;;2.17;;
42948;SDS011;28587;46.794;23.594;2022-10-20T11:15:12;2.38;;;1.50;;
42948;SDS011;28587;46.794;23.594;2022-10-20T11:20:37;2.75;;;1.60;;
42948;SDS011;28587;46.794;23.594;2022-10-20T11:26:02;2.35;;;1.70;;
42948;SDS011;28587;46.794;23.594;2022-10-20T11:36:28;3.90;;;1.88;;
42948;SDS011;28587;46.794;23.594;2022-10-20T11:41:46;2.00;;;1.80;;
42948;SDS011;28587;46.794;23.594;2022-10-20T11:47:25;1.67;;;1.50;;
42948;SDS011;28587;46.794;23.594;2022-10-20T12:14:01;1.70;;;1.40;;
42948;SDS011;28587;46.794;23.594;2022-10-20T12:19:16;3.15;;;1.70;;
42948;SDS011;28587;46.794;23.594;2022-10-20T12:24:29;2.55;;;1.75;;
42948;SDS011;28587;46.794;23.594;2022-10-20T12:34:39;5.13;;;1.52;;
42948;SDS011;28587;46.794;23.594;2022-10-20T12:39:41;2.72;;;1.60;;
42948;SDS011;28587;46.794;23.594;2022-10-20T12:44:42;2.40;;;1.60;;
42948;SDS011;28587;46.794;23.594;2022-10-20T12:49:54;2.63;;;1.23;;
42948;SDS011;28587;46.794;23.594;2022-10-20T13:05:25;2.08;;;1.52;;
42948;SDS011;28587;46.794;23.594;2022-10-20T13:10:47;1.90;;;1.50;;
42948;SDS011;28587;46.794;23.594;2022-10-20T13:15:49;1.42;;;1.30;;
42948;SDS011;28587;46.794;23.594;2022-10-20T13:20:56;2.55;;;1.50;;
42948;SDS011;28587;46.794;23.594;2022-10-20T13:25:58;1.70;;;1.40;;
42948;SDS011;28587;46.794;23.594;2022-10-20T13:31:33;2.28;;;1.40;;
42948;SDS011;28587;46.794;23.594;2022-10-20T13:52:57;1.88;;;1.40;;
42948;SDS011;28587;46.794;23.594;2022-10-20T13:58:04;1.85;;;1.35;;
42948;SDS011;28587;46.794;23.594;2022-10-20T14:03:17;1.60;;;1.23;;
42948;SDS011;28587;46.794;23.594;2022-10-20T14:08:17;2.33;;;1.50;;
42948;SDS011;28587;46.794;23.594;2022-10-20T14:13:25;1.27;;;1.17;;
42948;SDS011;28587;46.794;23.594;2022-10-20T14:18:29;1.70;;;1.42;;
42948;SDS011;28587;46.794;23.594;2022-10-20T14:23:35;2.20;;;1.40;;
42948;SDS011;28587;46.794;23.594;2022-10-20T14:28:38;2.08;;;1.50;;
42948;SDS011;28587;46.794;23.594;2022-10-20T14:33:41;2.50;;;1.50;;
42948;SDS011;28587;46.794;23.594;2022-10-20T14:38:45;2.17;;;1.73;;
42948;SDS011;28587;46.794;23.594;2022-10-20T14:43:47;1.83;;;1.65;;
42948;SDS011;28587;46.794;23.594;2022-10-20T14:48:51;2.03;;;1.70;;
42948;SDS011;28587;46.794;23.594;2022-10-20T14:53:51;1.75;;;1.65;;
42948;SDS011;28587;46.794;23.594;2022-10-20T14:59:19;1.90;;;1.52;;
42948;SDS011;28587;46.794;23.594;2022-10-20T15:04:26;2.08;;;1.55;;
42948;SDS011;28587;46.794;23.594;2022-10-20T15:09:38;1.67;;;1.45;;
42948;SDS011;28587;46.794;23.594;2022-10-20T15:14:43;2.05;;;1.55;;
42948;SDS011;28587;46.794;23.594;2022-10-20T15:19:47;2.53;;;1.77;;
42948;SDS011;28587;46.794;23.594;2022-10-20T15:24:48;2.42;;;1.40;;
42948;SDS011;28587;46.794;23.594;2022-10-20T15:29:49;3.20;;;1.60;;
42948;SDS011;28587;46.794;23.594;2022-10-20T15:34:51;2.08;;;1.73;;
42948;SDS011;28587;46.794;23.594;2022-10-20T15:39:52;2.10;;;1.60;;
42948;SDS011;28587;46.794;23.594;2022-10-20T15:44:52;2.70;;;1.63;;
42948;SDS011;28587;46.794;23.594;2022-10-20T15:49:53;3.03;;;1.50;;
42948;SDS011;28587;46.794;23.594;2022-10-20T15:54:54;2.15;;;1.38;;
42948;SDS011;28587;46.794;23.594;2022-10-20T15:59:55;2.53;;;1.58;;
42948;SDS011;28587;46.794;23.594;2022-10-20T16:04:56;3.53;;;1.70;;
42948;SDS011;28587;46.794;23.594;2022-10-20T16:09:57;1.83;;;1.73;;
42948;SDS011;28587;46.794;23.594;2022-10-20T16:14:58;4.45;;;1.67;;
42948;SDS011;28587;46.794;23.594;2022-10-20T16:19:59;3.65;;;1.77;;
42948;SDS011;28587;46.794;23.594;2022-10-20T16:24:59;2.13;;;1.67;;
42948;SDS011;28587;46.794;23.594;2022-10-20T16:30:01;2.90;;;1.45;;
42948;SDS011;28587;46.794;23.594;2022-10-20T16:35:04;5.38;;;1.50;;
42948;SDS011;28587;46.794;23.594;2022-10-20T16:41:52;2.22;;;1.80;;
42948;SDS011;28587;46.794;23.594;2022-10-20T16:46:53;2.08;;;1.77;;
42948;SDS011;28587;46.794;23.594;2022-10-20T16:51:54;2.33;;;1.80;;
42948;SDS011;28587;46.794;23.594;2022-10-20T16:56:55;3.60;;;2.30;;
42948;SDS011;28587;46.794;23.594;2022-10-20T17:01:56;2.90;;;2.05;;
42948;SDS011;28587;46.794;23.594;2022-10-20T17:06:57;2.67;;;2.05;;
42948;SDS011;28587;46.794;23.594;2022-10-20T17:11:58;3.05;;;2.15;;
42948;SDS011;28587;46.794;23.594;2022-10-20T17:16:59;2.55;;;2.33;;
42948;SDS011;28587;46.794;23.594;2022-10-20T17:22:00;3.88;;;2.60;;
42948;SDS011;28587;46.794;23.594;2022-10-20T17:27:01;3.70;;;2.20;;
42948;SDS011;28587;46.794;23.594;2022-10-20T17:32:02;4.82;;;2.75;;
42948;SDS011;28587;46.794;23.594;2022-10-20T17:37:02;3.17;;;2.83;;
42948;SDS011;28587;46.794;23.594;2022-10-20T17:42:03;4.97;;;3.03;;
42948;SDS011;28587;46.794;23.594;2022-10-20T17:47:04;4.70;;;2.83;;
42948;SDS011;28587;46.794;23.594;2022-10-20T17:52:05;4.55;;;3.45;;
42948;SDS011;28587;46.794;23.594;2022-10-20T17:57:06;4.32;;;3.83;;
42948;SDS011;28587;46.794;23.594;2022-10-20T18:02:08;6.88;;;3.80;;
42948;SDS011;28587;46.794;23.594;2022-10-20T18:07:09;4.70;;;3.78;;
42948;SDS011;28587;46.794;23.594;2022-10-20T18:12:10;5.38;;;3.88;;
42948;SDS011;28587;46.794;23.594;2022-10-20T18:17:10;4.88;;;4.38;;
42948;SDS011;28587;46.794;23.594;2022-10-20T18:22:11;5.05;;;3.90;;
42948;SDS011;28587;46.794;23.594;2022-10-20T18:27:12;5.55;;;4.25;;
42948;SDS011;28587;46.794;23.594;2022-10-20T18:32:14;6.72;;;4.03;;
42948;SDS011;28587;46.794;23.594;2022-10-20T18:37:14;7.22;;;5.20;;
42948;SDS011;28587;46.794;23.594;2022-10-20T18:42:17;7.03;;;4.97;;
42948;SDS011;28587;46.794;23.594;2022-10-20T18:47:17;6.40;;;5.07;;
42948;SDS011;28587;46.794;23.594;2022-10-20T18:52:18;5.97;;;4.95;;
42948;SDS011;28587;46.794;23.594;2022-10-20T18:57:19;6.00;;;5.18;;
42948;SDS011;28587;46.794;23.594;2022-10-20T19:02:20;5.97;;;4.60;;
42948;SDS011;28587;46.794;23.594;2022-10-20T19:07:21;7.05;;;5.13;;
42948;SDS011;28587;46.794;23.594;2022-10-20T19:12:22;5.90;;;5.22;;
42948;SDS011;28587;46.794;23.594;2022-10-20T19:17:23;7.70;;;5.53;;
42948;SDS011;28587;46.794;23.594;2022-10-20T19:22:24;6.82;;;5.47;;
42948;SDS011;28587;46.794;23.594;2022-10-20T19:27:25;7.00;;;5.60;;
42948;SDS011;28587;46.794;23.594;2022-10-20T19:32:26;7.60;;;5.45;;
42948;SDS011;28587;46.794;23.594;2022-10-20T19:37:27;8.90;;;5.78;;
42948;SDS011;28587;46.794;23.594;2022-10-20T19:42:28;7.95;;;5.63;;
42948;SDS011;28587;46.794;23.594;2022-10-20T19:47:29;10.00;;;5.97;;
42948;SDS011;28587;46.794;23.594;2022-10-20T19:52:30;6.63;;;5.78;;
42948;SDS011;28587;46.794;23.594;2022-10-20T19:57:31;7.55;;;6.18;;
42948;SDS011;28587;46.794;23.594;2022-10-20T20:02:32;7.55;;;6.10;;
42948;SDS011;28587;46.794;23.594;2022-10-20T20:07:34;7.95;;;6.18;;
42948;SDS011;28587;46.794;23.594;2022-10-20T20:12:35;8.25;;;6.05;;
42948;SDS011;28587;46.794;23.594;2022-10-20T20:17:36;7.45;;;6.63;;
42948;SDS011;28587;46.794;23.594;2022-10-20T20:22:36;7.93;;;6.15;;
42948;SDS011;28587;46.794;23.594;2022-10-20T20:27:37;7.30;;;6.28;;
42948;SDS011;28587;46.794;23.594;2022-10-20T20:32:38;8.13;;;6.40;;
42948;SDS011;28587;46.794;23.594;2022-10-20T20:37:39;7.35;;;6.28;;
42948;SDS011;28587;46.794;23.594;2022-10-20T20:42:40;9.73;;;6.00;;
42948;SDS011;28587;46.794;23.594;2022-10-20T20:47:41;6.20;;;5.60;;
42948;SDS011;28587;46.794;23.594;2022-10-20T20:52:47;6.68;;;5.57;;
42948;SDS011;28587;46.794;23.594;2022-10-20T20:57:48;7.40;;;5.97;;
42948;SDS011;28587;46.794;23.594;2022-10-20T21:02:49;6.45;;;5.43;;
42948;SDS011;28587;46.794;23.594;2022-10-20T21:07:49;6.28;;;5.65;;
42948;SDS011;28587;46.794;23.594;2022-10-20T21:12:50;6.10;;;5.50;;
42948;SDS011;28587;46.794;23.594;2022-10-20T21:17:51;6.45;;;5.85;;
42948;SDS011;28587;46.794;23.594;2022-10-20T21:22:52;8.02;;;6.63;;
42948;SDS011;28587;46.794;23.594;2022-10-20T21:27:53;7.50;;;5.47;;
42948;SDS011;28587;46.794;23.594;2022-10-20T21:32:54;6.80;;;6.10;;
42948;SDS011;28587;46.794;23.594;2022-10-20T21:37:56;6.50;;;5.80;;
42948;SDS011;28587;46.794;23.594;2022-10-20T21:42:57;7.07;;;5.22;;
42948;SDS011;28587;46.794;23.594;2022-10-20T21:47:58;5.72;;;5.10;;
42948;SDS011;28587;46.794;23.594;2022-10-20T21:52:59;6.95;;;5.75;;
42948;SDS011;28587;46.794;23.594;2022-10-20T21:58:00;5.75;;;4.97;;
42948;SDS011;28587;46.794;23.594;2022-10-20T22:03:01;7.35;;;5.70;;
42948;SDS011;28587;46.794;23.594;2022-10-20T22:08:01;5.90;;;5.30;;
42948;SDS011;28587;46.794;23.594;2022-10-20T22:13:03;7.28;;;5.78;;
42948;SDS011;28587;46.794;23.594;2022-10-20T22:18:04;6.22;;;5.63;;
42948;SDS011;28587;46.794;23.594;2022-10-20T22:23:05;6.38;;;5.07;;
42948;SDS011;28587;46.794;23.594;2022-10-20T22:28:06;6.07;;;5.20;;
42948;SDS011;28587;46.794;23.594;2022-10-20T22:33:07;5.93;;;5.30;;
42948;SDS011;28587;46.794;23.594;2022-10-20T22:38:08;5.93;;;5.22;;
42948;SDS011;28587;46.794;23.594;2022-10-20T22:43:09;5.72;;;4.95;;
42948;SDS011;28587;46.794;23.594;2022-10-20T22:48:09;5.80;;;5.28;;
42948;SDS011;28587;46.794;23.594;2022-10-20T22:53:10;6.30;;;5.63;;
42948;SDS011;28587;46.794;23.594;2022-10-20T22:58:11;5.22;;;4.75;;
42948;SDS011;28587;46.794;23.594;2022-10-20T23:03:12;6.18;;;5.57;;
42948;SDS011;28587;46.794;23.594;2022-10-20T23:08:13;5.68;;;5.13;;
42948;SDS011;28587;46.794;23.594;2022-10-20T23:13:14;7.13;;;5.70;;
42948;SDS011;28587;46.794;23.594;2022-10-20T23:18:15;6.90;;;5.05;;
42948;SDS011;28587;46.794;23.594;2022-10-20T23:23:16;5.68;;;5.07;;
42948;SDS011;28587;46.794;23.594;2022-10-20T23:28:17;6.75;;;5.32;;
42948;SDS011;28587;46.794;23.594;2022-10-20T23:33:18;5.60;;;5.10;;
42948;SDS011;28587;46.794;23.594;2022-10-20T23:38:19;5.57;;;5.07;;
42948;SDS011;28587;46.794;23.594;2022-10-20T23:43:20;5.20;;;4.70;;
42948;SDS011;28587;46.794;23.594;2022-10-20T23:48:21;5.70;;;5.20;;
42948;SDS011;28587;46.794;23.594;2022-10-20T23:53:22;6.20;;;5.60;;
42948;SDS011;28587;46.794;23.594;2022-10-20T23:58:23;6.15;;;4.97;;
